createdAt,value
2022-12-31T00:02:56.835Z,6.90
2022-12-31T00:06:00.353Z,3.65
2022-12-31T00:09:05.247Z,3.83
2022-12-31T00:12:09.148Z,2.67
2022-12-31T00:15:12.014Z,2.63
2022-12-31T00:18:14.027Z,1.05
2022-12-31T00:21:18.129Z,1.58
2022-12-31T00:24:20.464Z,0.90
2022-12-31T00:27:26.903Z,0.85
2022-12-31T00:30:28.738Z,1.20
2022-12-31T00:33:31.065Z,0.50
2022-12-31T00:36:34.674Z,3.33
2022-12-31T00:39:38.179Z,2.72
2022-12-31T00:42:42.164Z,2.38
2022-12-31T00:45:44.029Z,2.55
2022-12-31T00:48:47.032Z,3.03
2022-12-31T00:51:49.061Z,3.10
2022-12-31T00:54:53.952Z,3.33
2022-12-31T00:57:57.198Z,2.15
2022-12-31T01:00:59.561Z,3.15
2022-12-31T01:04:04.933Z,3.50
2022-12-31T01:07:08.272Z,3.45
2022-12-31T01:10:10.795Z,4.72
2022-12-31T01:13:14.311Z,5.85
2022-12-31T01:16:19.713Z,6.45
2022-12-31T01:19:24.085Z,7.80
2022-12-31T01:22:31.102Z,8.40
2022-12-31T01:25:35.100Z,6.35
2022-12-31T01:28:49.921Z,7.38
2022-12-31T01:31:51.879Z,6.70
2022-12-31T01:34:56.308Z,6.60
2022-12-31T01:37:58.103Z,8.98
2022-12-31T01:41:03.402Z,10.90
2022-12-31T01:44:38.437Z,6.80
2022-12-31T01:47:45.450Z,9.13
2022-12-31T01:50:48.582Z,6.82
2022-12-31T01:53:51.714Z,8.45
2022-12-31T01:56:55.304Z,7.28
2022-12-31T02:00:00.602Z,7.32
2022-12-31T02:03:07.255Z,6.90
2022-12-31T02:06:14.891Z,6.80
2022-12-31T02:09:18.105Z,9.77
2022-12-31T02:12:24.087Z,8.70
2022-12-31T02:15:33.828Z,9.68
2022-12-31T02:18:48.842Z,10.50
2022-12-31T02:22:01.229Z,9.93
2022-12-31T02:25:30.528Z,12.93
2022-12-31T02:28:53.824Z,9.63
2022-12-31T02:32:00.998Z,13.57
2022-12-31T02:35:10.256Z,11.05
2022-12-31T02:41:20.338Z,3.63
2022-12-31T02:44:24.137Z,1.73
2022-12-31T02:47:43.683Z,2.63
2022-12-31T02:50:58.670Z,4.75
2022-12-31T02:54:17.429Z,1.73
2022-12-31T02:57:34.212Z,1.73
2022-12-31T03:00:44.033Z,1.48
2022-12-31T03:03:47.353Z,1.60
2022-12-31T03:06:51.806Z,1.08
2022-12-31T03:09:54.977Z,0.93
2022-12-31T03:12:57.102Z,0.77
2022-12-31T03:16:02.049Z,0.68
2022-12-31T03:19:05.506Z,1.17
2022-12-31T03:22:12.706Z,0.77
2022-12-31T03:25:17.123Z,1.23
2022-12-31T03:28:21.937Z,1.75
2022-12-31T03:31:26.110Z,0.20
2022-12-31T03:34:29.380Z,0.65
2022-12-31T03:37:31.716Z,0.43
2022-12-31T03:40:38.401Z,0.47
2022-12-31T03:43:42.224Z,1.98
2022-12-31T03:46:44.010Z,0.70
2022-12-31T03:49:47.237Z,1.00
2022-12-31T03:52:50.484Z,1.00
2022-12-31T03:55:52.848Z,0.70
2022-12-31T03:58:56.096Z,0.70
2022-12-31T04:01:58.087Z,0.57
2022-12-31T04:05:06.598Z,0.77
2022-12-31T04:08:08.609Z,0.60
2022-12-31T04:11:14.678Z,1.00
2022-12-31T04:14:20.803Z,1.45
2022-12-31T04:17:22.947Z,0.35
2022-12-31T04:20:26.244Z,1.50
2022-12-31T04:23:29.393Z,0.73
2022-12-31T04:26:33.459Z,0.93
2022-12-31T04:29:35.975Z,1.40
2022-12-31T04:32:37.835Z,1.38
2022-12-31T04:35:43.028Z,0.65
2022-12-31T04:38:45.071Z,1.00
2022-12-31T04:41:49.356Z,1.05
2022-12-31T04:44:51.887Z,1.63
2022-12-31T04:47:53.851Z,0.55
2022-12-31T04:50:57.769Z,0.50
2022-12-31T04:54:00.225Z,0.95
2022-12-31T04:57:02.147Z,1.25
2022-12-31T05:00:05.068Z,1.15
2022-12-31T05:03:07.004Z,1.40
2022-12-31T05:06:17.230Z,1.45
2022-12-31T05:09:19.154Z,0.68
2022-12-31T05:12:21.062Z,2.50
2022-12-31T05:15:24.623Z,2.00
2022-12-31T05:18:26.851Z,0.30
2022-12-31T05:21:30.088Z,0.77
2022-12-31T05:24:33.071Z,0.55
2022-12-31T05:27:35.239Z,0.32
2022-12-31T05:30:39.445Z,0.45
2022-12-31T05:33:41.326Z,0.75
2022-12-31T05:36:47.504Z,1.27
2022-12-31T05:39:49.354Z,0.50
2022-12-31T05:42:51.180Z,0.95
2022-12-31T05:45:57.095Z,1.75
2022-12-31T05:48:58.972Z,0.75
2022-12-31T05:52:02.997Z,0.47
2022-12-31T05:55:08.789Z,0.70
2022-12-31T05:58:10.661Z,1.45
2022-12-31T06:01:13.075Z,0.40
2022-12-31T06:04:15.171Z,1.27
2022-12-31T06:07:18.575Z,0.30
2022-12-31T06:10:22.417Z,0.47
2022-12-31T06:13:24.350Z,0.90
2022-12-31T06:16:27.770Z,0.30
2022-12-31T06:19:29.688Z,1.20
2022-12-31T06:22:32.940Z,0.30
2022-12-31T06:25:37.538Z,1.45
2022-12-31T06:28:39.487Z,0.65
2022-12-31T06:31:42.949Z,1.58
2022-12-31T06:34:44.987Z,0.77
2022-12-31T06:37:54.811Z,0.47
2022-12-31T06:40:56.853Z,3.63
2022-12-31T06:44:02.175Z,1.45
2022-12-31T06:47:04.248Z,0.98
2022-12-31T06:50:07.355Z,1.40
2022-12-31T06:53:15.494Z,0.73
2022-12-31T06:56:20.173Z,1.65
2022-12-31T06:59:25.824Z,2.40
2022-12-31T07:02:48.458Z,1.13
2022-12-31T07:05:54.318Z,2.00
2022-12-31T07:09:09.058Z,1.52
2022-12-31T07:12:20.470Z,2.55
2022-12-31T07:15:50.234Z,1.70
2022-12-31T07:18:58.559Z,1.63
2022-12-31T07:22:03.129Z,1.40
2022-12-31T07:25:13.726Z,2.33
2022-12-31T07:28:25.264Z,2.50
2022-12-31T07:31:39.885Z,1.98
2022-12-31T07:34:51.217Z,1.05
2022-12-31T07:38:02.705Z,2.28
2022-12-31T07:41:17.216Z,2.28
2022-12-31T07:44:34.670Z,4.53
2022-12-31T07:47:37.260Z,1.63
2022-12-31T07:50:39.684Z,1.40
2022-12-31T07:53:43.086Z,2.78
2022-12-31T07:56:47.472Z,4.03
2022-12-31T08:00:03.866Z,2.53
2022-12-31T08:03:18.888Z,3.03
2022-12-31T08:06:35.175Z,3.95
2022-12-31T08:09:46.874Z,3.40
2022-12-31T08:12:53.258Z,6.22
2022-12-31T08:15:58.255Z,5.32
2022-12-31T08:19:00.985Z,3.88
2022-12-31T08:22:14.917Z,6.93
2022-12-31T08:25:25.893Z,8.93
2022-12-31T08:28:56.968Z,4.65
2022-12-31T08:32:12.138Z,6.88
2022-12-31T08:35:27.264Z,7.53
2022-12-31T08:38:35.171Z,4.85
2022-12-31T08:41:43.052Z,6.80
2022-12-31T08:44:54.618Z,5.20
2022-12-31T08:48:04.259Z,9.65
2022-12-31T08:51:14.341Z,10.25
2022-12-31T08:54:16.956Z,8.52
2022-12-31T08:57:28.297Z,8.65
2022-12-31T09:00:32.547Z,7.22
2022-12-31T09:03:53.322Z,8.38
2022-12-31T09:06:59.696Z,7.15
2022-12-31T09:10:12.091Z,8.63
2022-12-31T09:13:25.136Z,8.45
2022-12-31T09:16:29.193Z,7.32
2022-12-31T09:19:32.449Z,11.35
2022-12-31T09:22:36.211Z,10.32
2022-12-31T09:25:44.130Z,8.63
2022-12-31T09:28:54.792Z,8.82
2022-12-31T09:32:05.952Z,11.15
2022-12-31T09:35:16.882Z,9.55
2022-12-31T09:38:22.781Z,6.57
2022-12-31T09:42:14.910Z,6.20
2022-12-31T09:45:52.329Z,9.43
2022-12-31T09:49:28.181Z,8.65
2022-12-31T09:52:47.649Z,7.28
2022-12-31T09:55:57.668Z,9.85
2022-12-31T09:59:05.603Z,10.07
2022-12-31T10:02:22.922Z,9.45
2022-12-31T10:05:50.486Z,9.73
2022-12-31T10:09:10.458Z,9.40
2022-12-31T10:15:38.885Z,6.10
2022-12-31T10:18:58.356Z,6.25
2022-12-31T10:22:15.053Z,6.75
2022-12-31T10:25:38.915Z,7.35
2022-12-31T10:28:56.526Z,6.57
2022-12-31T10:32:17.489Z,7.15
2022-12-31T10:35:35.669Z,6.65
2022-12-31T10:38:47.213Z,5.38
2022-12-31T10:42:25.190Z,5.82
2022-12-31T10:46:01.960Z,4.97
2022-12-31T10:49:30.697Z,5.43
2022-12-31T10:53:19.776Z,4.90
2022-12-31T10:56:56.224Z,7.18
2022-12-31T11:00:18.528Z,6.53
2022-12-31T11:03:55.611Z,6.45
2022-12-31T11:07:27.489Z,6.25
2022-12-31T11:11:03.528Z,6.15
2022-12-31T11:14:33.917Z,6.38
2022-12-31T11:17:45.148Z,5.90
2022-12-31T11:21:28.498Z,5.60
2022-12-31T11:24:41.862Z,6.38
2022-12-31T11:27:56.882Z,5.30
2022-12-31T11:31:12.355Z,4.47
2022-12-31T11:34:49.275Z,5.82
2022-12-31T11:37:54.644Z,8.63
2022-12-31T11:41:05.433Z,8.02
2022-12-31T11:44:20.697Z,5.32
2022-12-31T11:48:29.232Z,4.00
2022-12-31T11:52:00.693Z,6.00
2022-12-31T11:55:26.743Z,3.25
2022-12-31T11:58:29.926Z,3.85
2022-12-31T12:01:36.472Z,4.53
2022-12-31T12:04:38.411Z,2.28
2022-12-31T12:07:44.305Z,2.50
2022-12-31T12:10:48.728Z,2.42
2022-12-31T12:13:50.636Z,4.35
2022-12-31T12:17:02.432Z,3.97
2022-12-31T12:20:15.630Z,2.10
2022-12-31T12:23:24.596Z,3.55
2022-12-31T12:26:34.162Z,6.45
2022-12-31T12:29:36.274Z,5.18
2022-12-31T12:32:39.136Z,6.13
2022-12-31T12:35:41.071Z,4.47
2022-12-31T12:38:46.437Z,4.13
2022-12-31T12:41:59.969Z,4.28
2022-12-31T12:45:05.010Z,4.82
2022-12-31T12:48:17.622Z,5.70
2022-12-31T12:51:33.321Z,4.63
2022-12-31T12:54:55.061Z,3.85
2022-12-31T12:58:06.679Z,4.95
2022-12-31T13:01:21.748Z,4.75
2022-12-31T13:04:38.533Z,5.82
2022-12-31T13:07:56.670Z,5.25
2022-12-31T13:11:12.048Z,6.10
2022-12-31T13:14:25.827Z,4.38
2022-12-31T13:17:46.050Z,4.20
2022-12-31T13:20:59.396Z,5.63
2022-12-31T13:24:07.713Z,4.95
2022-12-31T13:30:21.926Z,5.03
2022-12-31T13:33:29.480Z,4.45
2022-12-31T13:36:38.471Z,3.28
2022-12-31T13:39:44.156Z,4.05
2022-12-31T13:42:53.788Z,5.40
2022-12-31T13:46:08.251Z,4.13
2022-12-31T13:49:17.434Z,4.75
2022-12-31T13:52:28.758Z,4.63
2022-12-31T13:55:33.798Z,4.45
2022-12-31T13:58:43.524Z,4.15
2022-12-31T14:01:53.054Z,4.05
2022-12-31T14:05:00.533Z,3.85
2022-12-31T14:08:05.263Z,6.50
2022-12-31T14:11:18.665Z,4.88
2022-12-31T14:14:31.236Z,3.33
2022-12-31T14:17:42.581Z,3.58
2022-12-31T14:20:49.001Z,4.28
2022-12-31T14:23:59.636Z,4.15
2022-12-31T14:27:05.537Z,5.50
2022-12-31T14:30:16.063Z,4.20
2022-12-31T14:33:32.287Z,4.47
2022-12-31T14:36:46.299Z,6.97
2022-12-31T14:39:54.970Z,4.13
2022-12-31T14:43:10.241Z,2.95
2022-12-31T14:46:26.035Z,4.30
2022-12-31T14:49:38.660Z,5.05
2022-12-31T14:52:52.110Z,10.30
2022-12-31T14:56:01.559Z,11.95
2022-12-31T14:59:03.528Z,4.87
2022-12-31T15:02:30.120Z,7.55
2022-12-31T15:05:34.599Z,6.15
2022-12-31T15:08:47.322Z,3.95
2022-12-31T15:12:14.429Z,4.55
2022-12-31T15:15:55.607Z,5.68
2022-12-31T15:19:29.748Z,6.97
2022-12-31T15:22:39.846Z,8.85
2022-12-31T15:25:47.849Z,13.77
2022-12-31T15:28:58.563Z,11.57
2022-12-31T15:32:04.084Z,9.90
2022-12-31T15:38:36.527Z,12.25
2022-12-31T15:42:03.122Z,14.00
2022-12-31T15:45:08.049Z,14.45
2022-12-31T15:48:16.727Z,14.13
2022-12-31T15:51:22.592Z,14.43
2022-12-31T15:54:34.779Z,13.25
2022-12-31T15:57:40.214Z,14.02
2022-12-31T16:01:01.462Z,17.77
2022-12-31T16:04:05.807Z,15.30
2022-12-31T16:07:09.561Z,11.82
2022-12-31T16:10:19.097Z,9.50
2022-12-31T16:13:24.219Z,6.40
2022-12-31T16:16:27.836Z,6.15
2022-12-31T16:19:35.690Z,7.00
2022-12-31T16:22:39.745Z,9.98
2022-12-31T16:25:45.347Z,7.65
2022-12-31T16:28:48.283Z,5.63
2022-12-31T16:31:52.282Z,8.50
2022-12-31T16:34:54.129Z,10.82
2022-12-31T16:38:13.969Z,14.07
2022-12-31T16:44:27.635Z,12.98
2022-12-31T16:47:34.095Z,18.38
2022-12-31T16:50:36.561Z,13.60
2022-12-31T16:53:40.661Z,13.55
2022-12-31T16:56:44.424Z,5.95
2022-12-31T16:59:49.389Z,4.10
2022-12-31T17:03:01.135Z,7.03
2022-12-31T17:06:14.076Z,14.15
2022-12-31T17:09:17.687Z,10.52
2022-12-31T17:12:20.968Z,26.02
2022-12-31T17:15:25.703Z,18.77
2022-12-31T17:18:35.613Z,19.85
2022-12-31T17:21:37.469Z,16.92
2022-12-31T17:24:39.874Z,12.63
2022-12-31T17:27:52.862Z,8.57
2022-12-31T17:31:00.009Z,11.30
2022-12-31T17:34:20.179Z,31.92
2022-12-31T17:37:27.175Z,26.98
2022-12-31T17:40:50.823Z,27.38
2022-12-31T17:43:57.825Z,23.52
2022-12-31T17:46:59.685Z,65.22
2022-12-31T17:50:08.804Z,58.58
2022-12-31T17:53:12.736Z,26.45
2022-12-31T17:56:15.449Z,24.15
2022-12-31T17:59:21.820Z,27.65
2022-12-31T18:02:23.734Z,24.55
2022-12-31T18:05:26.046Z,31.98
2022-12-31T18:08:27.922Z,26.17
2022-12-31T18:11:29.853Z,31.50
2022-12-31T18:14:33.584Z,34.72
2022-12-31T18:17:35.472Z,26.13
2022-12-31T18:20:37.368Z,49.13
2022-12-31T18:23:42.248Z,68.60
2022-12-31T18:26:44.083Z,71.05
2022-12-31T18:29:47.291Z,53.95
2022-12-31T18:32:49.163Z,33.33
2022-12-31T18:36:09.613Z,32.75
2022-12-31T18:39:12.243Z,19.13
2022-12-31T18:42:16.135Z,27.45
2022-12-31T18:45:21.098Z,28.58
2022-12-31T18:48:23.161Z,30.05
2022-12-31T18:51:31.320Z,52.75
2022-12-31T18:54:33.739Z,73.53
2022-12-31T18:57:35.552Z,67.38
2022-12-31T19:00:38.766Z,56.40
2022-12-31T19:03:40.551Z,22.08
2022-12-31T19:06:42.679Z,29.98
2022-12-31T19:09:45.977Z,50.88
2022-12-31T19:12:48.810Z,35.58
2022-12-31T19:15:53.296Z,42.97
2022-12-31T19:18:55.166Z,34.17
2022-12-31T19:21:56.977Z,26.52
2022-12-31T19:24:58.803Z,30.50
2022-12-31T19:28:00.999Z,29.42
2022-12-31T19:31:04.275Z,17.25
2022-12-31T19:34:06.097Z,17.17
2022-12-31T19:37:11.974Z,25.35
2022-12-31T19:40:16.488Z,24.35
2022-12-31T19:43:20.635Z,36.13
2022-12-31T19:46:23.846Z,16.80
2022-12-31T19:49:25.764Z,37.38
2022-12-31T19:52:27.571Z,42.28
2022-12-31T19:55:29.400Z,29.98
2022-12-31T19:58:31.356Z,24.05
2022-12-31T20:01:34.891Z,21.95
2022-12-31T20:04:36.783Z,12.23
2022-12-31T20:07:38.638Z,13.88
2022-12-31T20:10:40.879Z,19.75
2022-12-31T20:13:43.425Z,10.80
2022-12-31T20:16:46.687Z,18.02
2022-12-31T20:19:48.625Z,13.45
2022-12-31T20:22:50.460Z,15.90
2022-12-31T20:25:58.177Z,29.23
2022-12-31T20:28:59.984Z,22.27
2022-12-31T20:32:03.560Z,21.25
2022-12-31T20:35:06.424Z,20.42
2022-12-31T20:38:08.235Z,21.27
2022-12-31T20:41:11.644Z,19.30
2022-12-31T20:44:13.578Z,22.95
2022-12-31T20:47:16.737Z,23.30
2022-12-31T20:50:18.834Z,16.70
2022-12-31T20:53:20.588Z,22.98
2022-12-31T20:56:23.326Z,25.58
2022-12-31T20:59:25.137Z,18.55
2022-12-31T21:02:40.798Z,13.43
2022-12-31T21:05:47.612Z,13.15
2022-12-31T21:08:49.651Z,20.42
2022-12-31T21:11:51.483Z,13.77
2022-12-31T21:14:53.271Z,11.75
2022-12-31T21:17:56.498Z,13.15
2022-12-31T21:20:58.316Z,11.85
2022-12-31T21:24:00.165Z,19.55
2022-12-31T21:27:02.003Z,22.42
2022-12-31T21:30:20.152Z,25.05
2022-12-31T21:33:23.898Z,31.85
2022-12-31T21:36:25.779Z,20.80
2022-12-31T21:39:27.561Z,15.55
2022-12-31T21:42:29.363Z,22.45
2022-12-31T21:45:31.253Z,31.00
2022-12-31T21:48:34.444Z,13.40
2022-12-31T21:51:36.279Z,33.38
2022-12-31T21:54:38.068Z,33.42
2022-12-31T21:58:15.163Z,31.20
2022-12-31T22:01:03.596Z,29.80
2022-12-31T22:04:12.924Z,14.70
2022-12-31T22:07:24.134Z,9.88
2022-12-31T22:10:25.983Z,19.60
2022-12-31T22:13:27.871Z,13.48
2022-12-31T22:16:29.671Z,22.65
2022-12-31T22:19:39.270Z,17.75
2022-12-31T22:22:54.739Z,13.98
2022-12-31T22:25:56.721Z,7.20
2022-12-31T22:28:58.543Z,10.57
2022-12-31T22:32:01.361Z,20.05
2022-12-31T22:35:05.560Z,9.13
2022-12-31T22:38:11.882Z,12.23
2022-12-31T22:41:15.414Z,10.20
2022-12-31T22:44:17.235Z,10.13
2022-12-31T22:47:19.069Z,14.20
2022-12-31T22:50:22.256Z,19.70
2022-12-31T22:53:24.150Z,12.45
2022-12-31T22:56:25.947Z,6.63
2022-12-31T22:59:27.767Z,9.23
2022-12-31T23:02:30.550Z,16.75
2022-12-31T23:05:34.393Z,27.42
2022-12-31T23:08:36.755Z,66.95
2022-12-31T23:11:39.355Z,36.08
2022-12-31T23:14:41.188Z,25.60
2022-12-31T23:17:42.987Z,35.10
2022-12-31T23:20:46.243Z,77.07
2022-12-31T23:23:52.843Z,39.78
2022-12-31T23:26:55.958Z,25.38
2022-12-31T23:29:57.767Z,20.25
2022-12-31T23:32:59.904Z,17.60
2022-12-31T23:36:04.283Z,10.73
2022-12-31T23:39:06.113Z,11.63
2022-12-31T23:42:08.177Z,11.65
2022-12-31T23:45:10.658Z,11.65
2022-12-31T23:48:12.425Z,10.30
2022-12-31T23:51:15.624Z,12.32
2022-12-31T23:54:17.521Z,13.95
2022-12-31T23:57:19.341Z,12.93
